sensor_id;sensor_type;location;lat;lon;timestamp;pressure;altitude;pressure_sealevel;temperature;humidity
35443;BME280;21561;55.654;37.592;2023-03-12T00:02:22;97020.56;;;0.39;100.00
35443;BME280;21561;55.654;37.592;2023-03-12T00:04:49;97014.59;;;0.43;100.00
35443;BME280;21561;55.654;37.592;2023-03-12T00:07:16;97008.59;;;0.47;100.00
35443;BME280;21561;55.654;37.592;2023-03-12T00:09:42;97005.16;;;0.51;100.00
35443;BME280;21561;55.654;37.592;2023-03-12T00:12:10;96996.66;;;0.54;100.00
35443;BME280;21561;55.654;37.592;2023-03-12T00:14:37;96998.28;;;0.60;100.00
35443;BME280;21561;55.654;37.592;2023-03-12T00:17:04;96988.03;;;0.63;100.00
35443;BME280;21561;55.654;37.592;2023-03-12T00:19:31;96981.22;;;0.65;100.00
35443;BME280;21561;55.654;37.592;2023-03-12T00:21:58;96977.78;;;0.69;100.00
35443;BME280;21561;55.654;37.592;2023-03-12T00:24:24;96970.09;;;0.70;100.00
35443;BME280;21561;55.654;37.592;2023-03-12T00:26:51;96964.09;;;0.73;100.00
35443;BME280;21561;55.654;37.592;2023-03-12T00:29:18;96958.97;;;0.76;100.00
35443;BME280;21561;55.654;37.592;2023-03-12T00:31:45;96960.63;;;0.80;100.00
35443;BME280;21561;55.654;37.592;2023-03-12T00:34:12;96956.31;;;0.84;100.00
35443;BME280;21561;55.654;37.592;2023-03-12T00:36:38;96950.34;;;0.86;100.00
35443;BME280;21561;55.654;37.592;2023-03-12T00:39:06;96945.19;;;0.89;100.00
35443;BME280;21561;55.654;37.592;2023-03-12T00:41:33;96938.34;;;0.91;100.00
35443;BME280;21561;55.654;37.592;2023-03-12T00:44:00;96933.22;;;0.94;100.00
35443;BME280;21561;55.654;37.592;2023-03-12T00:46:27;96922.97;;;0.98;100.00
35443;BME280;21561;55.654;37.592;2023-03-12T00:48:54;96920.41;;;0.99;100.00
35443;BME280;21561;55.654;37.592;2023-03-12T00:51:21;96907.63;;;1.01;100.00
35443;BME280;21561;55.654;37.592;2023-03-12T00:53:48;96907.56;;;1.04;100.00
35443;BME280;21561;55.654;37.592;2023-03-12T00:56:15;96899.88;;;1.05;100.00
35443;BME280;21561;55.654;37.592;2023-03-12T00:58:42;96905.78;;;1.09;100.00
35443;BME280;21561;55.654;37.592;2023-03-12T01:01:09;96898.94;;;1.11;100.00
35443;BME280;21561;55.654;37.592;2023-03-12T01:03:36;96885.28;;;1.15;100.00
35443;BME280;21561;55.654;37.592;2023-03-12T01:06:04;96876.69;;;1.21;100.00
35443;BME280;21561;55.654;37.592;2023-03-12T01:08:31;96866.47;;;1.22;100.00
35443;BME280;21561;55.654;37.592;2023-03-12T01:10:58;96865.53;;;1.26;100.00
35443;BME280;21561;55.654;37.592;2023-03-12T01:13:25;96869.72;;;1.30;100.00
35443;BME280;21561;55.654;37.592;2023-03-12T01:15:52;96861.13;;;1.34;100.00
35443;BME280;21561;55.654;37.592;2023-03-12T01:18:19;96850.88;;;1.38;100.00
35443;BME280;21561;55.654;37.592;2023-03-12T01:20:46;96857.59;;;1.43;100.00
35443;BME280;21561;55.654;37.592;2023-03-12T01:23:13;96854.97;;;1.49;100.00
35443;BME280;21561;55.654;37.592;2023-03-12T01:25:41;96847.22;;;1.54;100.00
35443;BME280;21561;55.654;37.592;2023-03-12T01:28:09;96840.31;;;1.59;100.00
35443;BME280;21561;55.654;37.592;2023-03-12T01:30:35;96836.00;;;1.63;100.00
35443;BME280;21561;55.654;37.592;2023-03-12T01:33:03;96834.22;;;1.68;100.00
35443;BME280;21561;55.654;37.592;2023-03-12T01:35:34;96825.63;;;1.72;100.00
35443;BME280;21561;55.654;37.592;2023-03-12T01:38:01;96829.72;;;1.81;100.00
35443;BME280;21561;55.654;37.592;2023-03-12T01:40:28;96830.66;;;1.78;100.00
35443;BME280;21561;55.654;37.592;2023-03-12T01:42:58;96819.50;;;1.81;100.00
35443;BME280;21561;55.654;37.592;2023-03-12T01:48:19;96816.78;;;1.90;100.00
35443;BME280;21561;55.654;37.592;2023-03-12T01:50:46;96815.88;;;1.94;100.00
35443;BME280;21561;55.654;37.592;2023-03-12T01:53:13;96814.97;;;1.97;100.00
35443;BME280;21561;55.654;37.592;2023-03-12T01:55:40;96810.66;;;1.99;100.00
35443;BME280;21561;55.654;37.592;2023-03-12T01:58:07;96803.78;;;2.02;100.00
35443;BME280;21561;55.654;37.592;2023-03-12T02:00:34;96793.44;;;2.08;100.00
35443;BME280;21561;55.654;37.592;2023-03-12T02:03:07;96790.72;;;2.16;100.00
35443;BME280;21561;55.654;37.592;2023-03-12T02:05:39;96786.44;;;2.17;100.00
35443;BME280;21561;55.654;37.592;2023-03-12T02:08:10;96786.34;;;2.23;100.00
35443;BME280;21561;55.654;37.592;2023-03-12T02:10:38;96778.66;;;2.23;100.00
35443;BME280;21561;55.654;37.592;2023-03-12T02:13:05;96765.88;;;2.23;100.00
35443;BME280;21561;55.654;37.592;2023-03-12T02:15:33;96765.78;;;2.26;100.00
35443;BME280;21561;55.654;37.592;2023-03-12T02:18:05;96764.06;;;2.28;100.00
35443;BME280;21561;55.654;37.592;2023-03-12T02:23:05;96759.66;;;2.35;100.00
35443;BME280;21561;55.654;37.592;2023-03-12T02:25:38;96764.75;;;2.36;100.00
35443;BME280;21561;55.654;37.592;2023-03-12T02:28:09;96750.19;;;2.38;100.00
35443;BME280;21561;55.654;37.592;2023-03-12T02:30:39;96746.78;;;2.39;100.00
35443;BME280;21561;55.654;37.592;2023-03-12T02:33:09;96740.75;;;2.40;100.00
35443;BME280;21561;55.654;37.592;2023-03-12T02:35:36;96734.84;;;2.38;100.00
35443;BME280;21561;55.654;37.592;2023-03-12T02:40:56;96729.50;;;2.47;100.00
35443;BME280;21561;55.654;37.592;2023-03-12T02:43:24;96716.00;;;2.42;100.00
35443;BME280;21561;55.654;37.592;2023-03-12T02:45:50;96712.63;;;2.40;100.00
35443;BME280;21561;55.654;37.592;2023-03-12T02:48:17;96716.00;;;2.42;100.00
35443;BME280;21561;55.654;37.592;2023-03-12T02:50:44;96702.31;;;2.43;100.00
35443;BME280;21561;55.654;37.592;2023-03-12T02:53:11;96691.19;;;2.46;100.00
35443;BME280;21561;55.654;37.592;2023-03-12T02:55:38;96693.69;;;2.47;100.00
35443;BME280;21561;55.654;37.592;2023-03-12T02:58:05;96691.13;;;2.47;100.00
35443;BME280;21561;55.654;37.592;2023-03-12T03:00:32;96683.44;;;2.47;100.00
35443;BME280;21561;55.654;37.592;2023-03-12T03:02:59;96686.91;;;2.46;100.00
35443;BME280;21561;55.654;37.592;2023-03-12T03:05:26;96676.66;;;2.46;100.00
35443;BME280;21561;55.654;37.592;2023-03-12T03:07:53;96670.66;;;2.47;100.00
35443;BME280;21561;55.654;37.592;2023-03-12T03:10:19;96669.78;;;2.48;100.00
35443;BME280;21561;55.654;37.592;2023-03-12T03:12:46;96673.16;;;2.51;100.00
35443;BME280;21561;55.654;37.592;2023-03-12T03:15:13;96670.53;;;2.54;100.00
35443;BME280;21561;55.654;37.592;2023-03-12T03:17:40;96653.47;;;2.53;100.00
35443;BME280;21561;55.654;37.592;2023-03-12T03:20:07;96657.72;;;2.54;100.00
35443;BME280;21561;55.654;37.592;2023-03-12T03:22:38;96650.91;;;2.53;100.00
35443;BME280;21561;55.654;37.592;2023-03-12T03:25:06;96644.03;;;2.55;100.00
35443;BME280;21561;55.654;37.592;2023-03-12T03:27:34;96655.97;;;2.56;100.00
35443;BME280;21561;55.654;37.592;2023-03-12T03:30:02;96641.44;;;2.56;100.00
35443;BME280;21561;55.654;37.592;2023-03-12T03:32:29;96640.56;;;2.59;100.00
35443;BME280;21561;55.654;37.592;2023-03-12T03:34:56;96638.78;;;2.61;100.00
35443;BME280;21561;55.654;37.592;2023-03-12T03:37:23;96626.78;;;2.63;100.00
35443;BME280;21561;55.654;37.592;2023-03-12T03:39:50;96619.91;;;2.65;100.00
35443;BME280;21561;55.654;37.592;2023-03-12T03:42:17;96623.38;;;2.64;100.00
35443;BME280;21561;55.654;37.592;2023-03-12T03:44:43;96623.38;;;2.64;100.00
35443;BME280;21561;55.654;37.592;2023-03-12T03:47:10;96602.88;;;2.64;100.00
35443;BME280;21561;55.654;37.592;2023-03-12T03:49:37;96603.72;;;2.64;100.00
35443;BME280;21561;55.654;37.592;2023-03-12T03:52:04;96604.47;;;2.68;100.00
35443;BME280;21561;55.654;37.592;2023-03-12T03:54:31;96594.25;;;2.68;100.00
35443;BME280;21561;55.654;37.592;2023-03-12T03:56:59;96589.06;;;2.71;100.00
35443;BME280;21561;55.654;37.592;2023-03-12T03:59:27;96584.72;;;2.73;100.00
35443;BME280;21561;55.654;37.592;2023-03-12T04:01:53;96572.75;;;2.74;100.00
35443;BME280;21561;55.654;37.592;2023-03-12T04:04:21;96576.94;;;2.76;100.00
35443;BME280;21561;55.654;37.592;2023-03-12T04:06:48;96564.16;;;2.76;100.00
35443;BME280;21561;55.654;37.592;2023-03-12T04:09:15;96561.59;;;2.76;100.00
35443;BME280;21561;55.654;37.592;2023-03-12T04:11:42;96560.66;;;2.80;100.00
35443;BME280;21561;55.654;37.592;2023-03-12T04:14:08;96562.31;;;2.81;100.00
35443;BME280;21561;55.654;37.592;2023-03-12T04:16:35;96546.06;;;2.84;100.00
35443;BME280;21561;55.654;37.592;2023-03-12T04:19:02;96557.16;;;2.83;100.00
35443;BME280;21561;55.654;37.592;2023-03-12T04:21:29;96542.63;;;2.83;100.00
35443;BME280;21561;55.654;37.592;2023-03-12T04:23:55;96541.72;;;2.86;100.00
35443;BME280;21561;55.654;37.592;2023-03-12T04:26:22;96531.47;;;2.86;100.00
35443;BME280;21561;55.654;37.592;2023-03-12T04:28:49;96528.75;;;2.92;100.00
35443;BME280;21561;55.654;37.592;2023-03-12T04:31:16;96531.22;;;2.95;100.00
35443;BME280;21561;55.654;37.592;2023-03-12T04:33:43;96538.88;;;2.97;100.00
35443;BME280;21561;55.654;37.592;2023-03-12T04:36:10;96532.00;;;2.99;100.00
35443;BME280;21561;55.654;37.592;2023-03-12T04:38:37;96525.09;;;3.01;100.00
35443;BME280;21561;55.654;37.592;2023-03-12T04:41:11;96522.47;;;3.04;100.00
35443;BME280;21561;55.654;37.592;2023-03-12T04:43:38;96516.44;;;3.05;100.00
35443;BME280;21561;55.654;37.592;2023-03-12T04:46:06;96513.84;;;3.06;100.00
35443;BME280;21561;55.654;37.592;2023-03-12T04:48:33;96522.31;;;3.09;100.00
35443;BME280;21561;55.654;37.592;2023-03-12T04:51:01;96512.94;;;3.09;100.00
35443;BME280;21561;55.654;37.592;2023-03-12T04:53:29;96514.53;;;3.13;100.00
35443;BME280;21561;55.654;37.592;2023-03-12T04:55:56;96512.69;;;3.18;100.00
35443;BME280;21561;55.654;37.592;2023-03-12T04:58:23;96504.94;;;3.20;100.00
35443;BME280;21561;55.654;37.592;2023-03-12T05:00:50;96499.78;;;3.21;100.00
35443;BME280;21561;55.654;37.592;2023-03-12T05:03:17;96497.13;;;3.24;100.00
35443;BME280;21561;55.654;37.592;2023-03-12T05:05:44;96500.47;;;3.27;100.00
35443;BME280;21561;55.654;37.592;2023-03-12T05:08:11;96505.53;;;3.30;100.00
35443;BME280;21561;55.654;37.592;2023-03-12T05:10:38;96485.81;;;3.32;100.00
35443;BME280;21561;55.654;37.592;2023-03-12T05:13:16;96495.00;;;3.39;100.00
35443;BME280;21561;55.654;37.592;2023-03-12T05:15:44;96486.44;;;3.40;100.00
35443;BME280;21561;55.654;37.592;2023-03-12T05:18:13;96466.75;;;3.40;100.00
35443;BME280;21561;55.654;37.592;2023-03-12T05:20:40;96470.97;;;3.43;100.00
35443;BME280;21561;55.654;37.592;2023-03-12T05:23:07;96465.66;;;3.49;100.00
35443;BME280;21561;55.654;37.592;2023-03-12T05:25:38;96467.34;;;3.50;100.00
35443;BME280;21561;55.654;37.592;2023-03-12T05:28:05;96471.44;;;3.56;100.00
35443;BME280;21561;55.654;37.592;2023-03-12T05:30:31;96462.03;;;3.56;100.00
35443;BME280;21561;55.654;37.592;2023-03-12T05:32:58;96465.50;;;3.55;100.00
35443;BME280;21561;55.654;37.592;2023-03-12T05:35:25;96473.09;;;3.57;100.00
35443;BME280;21561;55.654;37.592;2023-03-12T05:37:52;96458.47;;;3.60;100.00
35443;BME280;21561;55.654;37.592;2023-03-12T05:40:19;96451.59;;;3.62;100.00
35443;BME280;21561;55.654;37.592;2023-03-12T05:42:45;96449.81;;;3.65;100.00
35443;BME280;21561;55.654;37.592;2023-03-12T05:45:12;96444.78;;;3.61;100.00
35443;BME280;21561;55.654;37.592;2023-03-12T05:47:39;96447.22;;;3.66;100.00
35443;BME280;21561;55.654;37.592;2023-03-12T05:50:06;96460.66;;;3.73;100.00
35443;BME280;21561;55.654;37.592;2023-03-12T05:52:34;96439.28;;;3.74;100.00
35443;BME280;21561;55.654;37.592;2023-03-12T05:55:01;96429.84;;;3.74;100.00
35443;BME280;21561;55.654;37.592;2023-03-12T05:57:29;96424.69;;;3.76;100.00
35443;BME280;21561;55.654;37.592;2023-03-12T05:59:56;96423.81;;;3.77;100.00
35443;BME280;21561;55.654;37.592;2023-03-12T06:02:22;96423.81;;;3.77;100.00
35443;BME280;21561;55.654;37.592;2023-03-12T06:04:49;96421.13;;;3.80;100.00
35443;BME280;21561;55.654;37.592;2023-03-12T06:07:16;96445.97;;;3.78;100.00
35443;BME280;21561;55.654;37.592;2023-03-12T06:09:43;96424.53;;;3.80;100.00
35443;BME280;21561;55.654;37.592;2023-03-12T06:12:09;96425.47;;;3.78;100.00
35443;BME280;21561;55.654;37.592;2023-03-12T06:14:36;96424.59;;;3.79;100.00
35443;BME280;21561;55.654;37.592;2023-03-12T06:17:03;96419.34;;;3.82;100.00
35443;BME280;21561;55.654;37.592;2023-03-12T06:19:30;96433.84;;;3.83;100.00
35443;BME280;21561;55.654;37.592;2023-03-12T06:21:57;96425.22;;;3.86;100.00
35443;BME280;21561;55.654;37.592;2023-03-12T06:24:23;96410.72;;;3.85;100.00
35443;BME280;21561;55.654;37.592;2023-03-12T06:26:50;96410.69;;;3.86;100.00
35443;BME280;21561;55.654;37.592;2023-03-12T06:29:17;96404.63;;;3.87;100.00
35443;BME280;21561;55.654;37.592;2023-03-12T06:31:44;96408.00;;;3.89;100.00
35443;BME280;21561;55.654;37.592;2023-03-12T06:34:11;96410.63;;;3.88;100.00
35443;BME280;21561;55.654;37.592;2023-03-12T06:36:38;96405.44;;;3.89;100.00
35443;BME280;21561;55.654;37.592;2023-03-12T06:39:05;96406.13;;;3.94;100.00
35443;BME280;21561;55.654;37.592;2023-03-12T06:41:32;96405.16;;;3.98;100.00
35443;BME280;21561;55.654;37.592;2023-03-12T06:43:59;96400.91;;;3.97;100.00
35443;BME280;21561;55.654;37.592;2023-03-12T06:46:29;96391.41;;;3.99;100.00
35443;BME280;21561;55.654;37.592;2023-03-12T06:48:56;96381.00;;;4.04;100.00
35443;BME280;21561;55.654;37.592;2023-03-12T06:51:23;96378.41;;;4.06;100.00
35443;BME280;21561;55.654;37.592;2023-03-12T06:53:49;96386.97;;;4.05;100.00
35443;BME280;21561;55.654;37.592;2023-03-12T06:56:16;96366.34;;;4.08;100.00
35443;BME280;21561;55.654;37.592;2023-03-12T06:58:43;96374.88;;;4.08;100.00
35443;BME280;21561;55.654;37.592;2023-03-12T07:01:10;96385.19;;;4.07;100.00
35443;BME280;21561;55.654;37.592;2023-03-12T07:03:37;96374.94;;;4.07;100.00
35443;BME280;21561;55.654;37.592;2023-03-12T07:06:04;96369.81;;;4.07;100.00
35443;BME280;21561;55.654;37.592;2023-03-12T07:08:31;96362.69;;;4.15;100.00
35443;BME280;21561;55.654;37.592;2023-03-12T07:10:58;96358.38;;;4.15;100.00
35443;BME280;21561;55.654;37.592;2023-03-12T07:13:29;96363.47;;;4.17;100.00
35443;BME280;21561;55.654;37.592;2023-03-12T07:15:56;96347.25;;;4.16;100.00
35443;BME280;21561;55.654;37.592;2023-03-12T07:18:23;96342.91;;;4.18;100.00
35443;BME280;21561;55.654;37.592;2023-03-12T07:20:50;96335.03;;;4.23;100.00
35443;BME280;21561;55.654;37.592;2023-03-12T07:23:18;96331.56;;;4.24;100.00
35443;BME280;21561;55.654;37.592;2023-03-12T07:25:46;96333.22;;;4.25;100.00
35443;BME280;21561;55.654;37.592;2023-03-12T07:28:14;96342.72;;;4.23;100.00
35443;BME280;21561;55.654;37.592;2023-03-12T07:30:41;96336.81;;;4.21;100.00
35443;BME280;21561;55.654;37.592;2023-03-12T07:33:10;96326.53;;;4.21;100.00
35443;BME280;21561;55.654;37.592;2023-03-12T07:35:38;96327.31;;;4.23;100.00
35443;BME280;21561;55.654;37.592;2023-03-12T07:38:06;96324.75;;;4.23;100.00
35443;BME280;21561;55.654;37.592;2023-03-12T07:40:34;96321.31;;;4.24;100.00
35443;BME280;21561;55.654;37.592;2023-03-12T07:43:01;96309.25;;;4.26;100.00
35443;BME280;21561;55.654;37.592;2023-03-12T07:45:28;96302.34;;;4.28;100.00
35443;BME280;21561;55.654;37.592;2023-03-12T07:47:55;96303.16;;;4.29;100.00
35443;BME280;21561;55.654;37.592;2023-03-12T07:50:22;96298.88;;;4.29;100.00
35443;BME280;21561;55.654;37.592;2023-03-12T07:52:49;96300.53;;;4.30;100.00
35443;BME280;21561;55.654;37.592;2023-03-12T07:55:16;96302.22;;;4.31;100.00
35443;BME280;21561;55.654;37.592;2023-03-12T07:57:43;96303.06;;;4.32;100.00
35443;BME280;21561;55.654;37.592;2023-03-12T08:00:10;96296.13;;;4.34;100.00
35443;BME280;21561;55.654;37.592;2023-03-12T08:02:38;96292.78;;;4.32;100.00
35443;BME280;21561;55.654;37.592;2023-03-12T08:05:06;96288.50;;;4.32;100.00
35443;BME280;21561;55.654;37.592;2023-03-12T08:07:33;96285.03;;;4.33;100.00
35443;BME280;21561;55.654;37.592;2023-03-12T08:10:02;96297.78;;;4.36;100.00
35443;BME280;21561;55.654;37.592;2023-03-12T08:12:30;96285.81;;;4.35;100.00
35443;BME280;21561;55.654;37.592;2023-03-12T08:14:57;96276.56;;;4.31;100.00
35443;BME280;21561;55.654;37.592;2023-03-12T08:17:24;96278.22;;;4.32;100.00
35443;BME280;21561;55.654;37.592;2023-03-12T08:19:51;96274.78;;;4.33;100.00
35443;BME280;21561;55.654;37.592;2023-03-12T08:22:18;96267.03;;;4.35;100.00
35443;BME280;21561;55.654;37.592;2023-03-12T08:24:45;96262.63;;;4.38;100.00
35443;BME280;21561;55.654;37.592;2023-03-12T08:27:13;96264.28;;;4.39;100.00
35443;BME280;21561;55.654;37.592;2023-03-12T08:29:40;96258.38;;;4.37;100.00
35443;BME280;21561;55.654;37.592;2023-03-12T08:32:08;96247.31;;;4.35;100.00
35443;BME280;21561;55.654;37.592;2023-03-12T08:34:36;96238.75;;;4.36;100.00
35443;BME280;21561;55.654;37.592;2023-03-12T08:37:06;96235.16;;;4.40;100.00
35443;BME280;21561;55.654;37.592;2023-03-12T08:39:50;96220.53;;;4.43;100.00
35443;BME280;21561;55.654;37.592;2023-03-12T08:42:17;96210.25;;;4.43;100.00
35443;BME280;21561;55.654;37.592;2023-03-12T08:44:45;96205.91;;;4.45;100.00
35443;BME280;21561;55.654;37.592;2023-03-12T08:47:12;96221.25;;;4.46;100.00
35443;BME280;21561;55.654;37.592;2023-03-12T08:49:44;96205.78;;;4.48;100.00
35443;BME280;21561;55.654;37.592;2023-03-12T08:52:11;96214.25;;;4.50;100.00
35443;BME280;21561;55.654;37.592;2023-03-12T08:54:41;96208.25;;;4.51;100.00
35443;BME280;21561;55.654;37.592;2023-03-12T08:57:08;96200.56;;;4.51;100.00
35443;BME280;21561;55.654;37.592;2023-03-12T08:59:35;96195.28;;;4.54;100.00
35443;BME280;21561;55.654;37.592;2023-03-12T09:02:04;96188.38;;;4.56;100.00
35443;BME280;21561;55.654;37.592;2023-03-12T09:04:33;96188.22;;;4.59;100.00
35443;BME280;21561;55.654;37.592;2023-03-12T09:07:00;96178.81;;;4.59;100.00
35443;BME280;21561;55.654;37.592;2023-03-12T09:09:27;96188.28;;;4.57;100.00
35443;BME280;21561;55.654;37.592;2023-03-12T09:11:54;96177.97;;;4.59;100.00
35443;BME280;21561;55.654;37.592;2023-03-12T09:14:21;96183.00;;;4.62;100.00
35443;BME280;21561;55.654;37.592;2023-03-12T09:17:08;96172.81;;;4.59;100.00
35443;BME280;21561;55.654;37.592;2023-03-12T09:19:35;96167.69;;;4.59;100.00
35443;BME280;21561;55.654;37.592;2023-03-12T09:22:02;96162.56;;;4.59;100.00
35443;BME280;21561;55.654;37.592;2023-03-12T09:24:29;96157.31;;;4.62;100.00
35443;BME280;21561;55.654;37.592;2023-03-12T09:26:56;96159.94;;;4.61;100.00
35443;BME280;21561;55.654;37.592;2023-03-12T09:29:23;96157.31;;;4.62;100.00
35443;BME280;21561;55.654;37.592;2023-03-12T09:31:50;96156.59;;;4.58;100.00
35443;BME280;21561;55.654;37.592;2023-03-12T09:34:17;96144.59;;;4.59;100.00
35443;BME280;21561;55.654;37.592;2023-03-12T09:36:44;96142.00;;;4.59;100.00
35443;BME280;21561;55.654;37.592;2023-03-12T09:39:11;96125.88;;;4.55;100.00
35443;BME280;21561;55.654;37.592;2023-03-12T09:41:39;96137.03;;;4.56;100.00
35443;BME280;21561;55.654;37.592;2023-03-12T09:44:26;96123.38;;;4.54;100.00
35443;BME280;21561;55.654;37.592;2023-03-12T09:47:00;96117.41;;;4.53;100.00
35443;BME280;21561;55.654;37.592;2023-03-12T09:49:36;96110.53;;;4.54;100.00
35443;BME280;21561;55.654;37.592;2023-03-12T09:52:35;96102.84;;;4.54;100.00
35443;BME280;21561;55.654;37.592;2023-03-12T09:55:06;96101.06;;;4.56;100.00
35443;BME280;21561;55.654;37.592;2023-03-12T09:57:33;96099.28;;;4.58;100.00
35443;BME280;21561;55.654;37.592;2023-03-12T10:00:00;96095.03;;;4.57;100.00
35443;BME280;21561;55.654;37.592;2023-03-12T10:05:25;96071.78;;;4.60;100.00
35443;BME280;21561;55.654;37.592;2023-03-12T10:11:16;96077.06;;;4.57;100.00
35443;BME280;21561;55.654;37.592;2023-03-12T10:19:36;96061.75;;;4.54;100.00
35443;BME280;21561;55.654;37.592;2023-03-12T10:25:11;96060.69;;;4.59;100.00
35443;BME280;21561;55.654;37.592;2023-03-12T10:27:41;96046.34;;;4.54;100.00
35443;BME280;21561;55.654;37.592;2023-03-12T10:30:20;96043.66;;;4.57;100.00
35443;BME280;21561;55.654;37.592;2023-03-12T10:32:55;96049.63;;;4.57;100.00
35443;BME280;21561;55.654;37.592;2023-03-12T10:35:26;96048.69;;;4.60;100.00
35443;BME280;21561;55.654;37.592;2023-03-12T10:37:56;96030.72;;;4.60;100.00
35443;BME280;21561;55.654;37.592;2023-03-12T10:40:32;96027.22;;;4.61;100.00
35443;BME280;21561;55.654;37.592;2023-03-12T10:43:03;96028.22;;;4.58;100.00
35443;BME280;21561;55.654;37.592;2023-03-12T10:48:23;96016.97;;;4.61;100.00
35443;BME280;21561;55.654;37.592;2023-03-12T10:51:08;96015.03;;;4.66;100.00
35443;BME280;21561;55.654;37.592;2023-03-12T10:53:40;96009.97;;;4.65;100.00
35443;BME280;21561;55.654;37.592;2023-03-12T10:56:17;96016.84;;;4.64;100.00
35443;BME280;21561;55.654;37.592;2023-03-12T10:58:49;96003.22;;;4.62;100.00
35443;BME280;21561;55.654;37.592;2023-03-12T11:01:20;96005.81;;;4.62;100.00
35443;BME280;21561;55.654;37.592;2023-03-12T11:03:48;96006.69;;;4.61;100.00
35443;BME280;21561;55.654;37.592;2023-03-12T11:06:27;96007.53;;;4.62;100.00
35443;BME280;21561;55.654;37.592;2023-03-12T11:09:19;95989.34;;;4.66;100.00
35443;BME280;21561;55.654;37.592;2023-03-12T11:11:48;95986.94;;;4.63;100.00
35443;BME280;21561;55.654;37.592;2023-03-12T11:14:24;95987.72;;;4.65;100.00
35443;BME280;21561;55.654;37.592;2023-03-12T11:16:53;95995.41;;;4.65;100.00
35443;BME280;21561;55.654;37.592;2023-03-12T11:19:50;95990.00;;;4.71;100.00
35443;BME280;21561;55.654;37.592;2023-03-12T11:22:31;95982.19;;;4.74;100.00
35443;BME280;21561;55.654;37.592;2023-03-12T11:25:05;95985.50;;;4.76;100.00
35443;BME280;21561;55.654;37.592;2023-03-12T11:30:05;95983.78;;;4.77;100.00
35443;BME280;21561;55.654;37.592;2023-03-12T11:32:39;95982.06;;;4.77;100.00
35443;BME280;21561;55.654;37.592;2023-03-12T11:35:12;95981.34;;;4.74;100.00
35443;BME280;21561;55.654;37.592;2023-03-12T11:38:06;95971.78;;;4.77;100.00
35443;BME280;21561;55.654;37.592;2023-03-12T11:40:57;95980.50;;;4.73;100.00
35443;BME280;21561;55.654;37.592;2023-03-12T11:49:16;96101.28;;;3.11;100.00
35443;BME280;21561;55.654;37.592;2023-03-12T11:52:13;96094.31;;;2.36;100.00
35443;BME280;21561;55.654;37.592;2023-03-12T12:00:15;96098.03;;;1.69;100.00
35443;BME280;21561;55.654;37.592;2023-03-12T12:03:18;96109.94;;;1.39;100.00
35443;BME280;21561;55.654;37.592;2023-03-12T12:06:15;96139.44;;;1.18;100.00
35443;BME280;21561;55.654;37.592;2023-03-12T12:17:46;96152.38;;;0.42;100.00
35443;BME280;21561;55.654;37.592;2023-03-12T12:20:20;96160.28;;;0.31;100.00
35443;BME280;21561;55.654;37.592;2023-03-12T12:26:12;96180.97;;;0.17;100.00
35443;BME280;21561;55.654;37.592;2023-03-12T12:28:53;96186.50;;;-0.03;100.00
35443;BME280;21561;55.654;37.592;2023-03-12T12:31:31;96211.25;;;-0.08;100.00
35443;BME280;21561;55.654;37.592;2023-03-12T12:34:15;96191.78;;;-0.12;100.00
35443;BME280;21561;55.654;37.592;2023-03-12T12:36:48;96196.28;;;-0.25;100.00
35443;BME280;21561;55.654;37.592;2023-03-12T12:39:22;96209.16;;;-0.33;100.00
35443;BME280;21561;55.654;37.592;2023-03-12T12:41:56;96210.06;;;-0.35;100.00
35443;BME280;21561;55.654;37.592;2023-03-12T12:44:37;96218.56;;;-0.36;100.00
35443;BME280;21561;55.654;37.592;2023-03-12T12:47:11;96218.69;;;-0.43;100.00
35443;BME280;21561;55.654;37.592;2023-03-12T12:49:44;96243.50;;;-0.54;100.00
35443;BME280;21561;55.654;37.592;2023-03-12T12:52:16;96220.72;;;-0.62;100.00
35443;BME280;21561;55.654;37.592;2023-03-12T12:55:18;96216.56;;;-0.66;100.00
35443;BME280;21561;55.654;37.592;2023-03-12T12:57:54;96237.09;;;-0.75;100.00
35443;BME280;21561;55.654;37.592;2023-03-12T13:00:49;96226.03;;;-0.74;100.00
35443;BME280;21561;55.654;37.592;2023-03-12T13:03:20;96274.53;;;-0.80;100.00
35443;BME280;21561;55.654;37.592;2023-03-12T13:11:23;96283.31;;;-1.00;100.00
35443;BME280;21561;55.654;37.592;2023-03-12T13:14:13;96276.56;;;-1.02;100.00
35443;BME280;21561;55.654;37.592;2023-03-12T13:16:42;96310.66;;;-1.14;100.00
35443;BME280;21561;55.654;37.592;2023-03-12T13:29:57;96329.47;;;-1.24;100.00
35443;BME280;21561;55.654;37.592;2023-03-12T13:33:34;96343.00;;;-1.22;100.00
35443;BME280;21561;55.654;37.592;2023-03-12T13:43:10;96390.03;;;-1.52;100.00
35443;BME280;21561;55.654;37.592;2023-03-12T13:48:16;96359.78;;;-1.76;100.00
35443;BME280;21561;55.654;37.592;2023-03-12T13:50:58;96390.31;;;-1.82;100.00
35443;BME280;21561;55.654;37.592;2023-03-12T13:53:32;96415.84;;;-1.93;100.00
35443;BME280;21561;55.654;37.592;2023-03-12T13:56:08;96415.91;;;-1.97;100.00
35443;BME280;21561;55.654;37.592;2023-03-12T13:58:59;96418.47;;;-2.00;100.00
35443;BME280;21561;55.654;37.592;2023-03-12T14:01:47;96425.28;;;-2.05;100.00
35443;BME280;21561;55.654;37.592;2023-03-12T14:04:21;96417.75;;;-2.16;100.00
35443;BME280;21561;55.654;37.592;2023-03-12T14:07:03;96433.94;;;-2.28;100.00
35443;BME280;21561;55.654;37.592;2023-03-12T14:12:18;96450.25;;;-2.58;100.00
35443;BME280;21561;55.654;37.592;2023-03-12T14:15:40;96454.53;;;-2.66;100.00
35443;BME280;21561;55.654;37.592;2023-03-12T14:18:17;96463.03;;;-2.75;100.00
35443;BME280;21561;55.654;37.592;2023-03-12T14:21:08;96492.72;;;-2.83;100.00
35443;BME280;21561;55.654;37.592;2023-03-12T14:23:40;96490.22;;;-2.99;100.00
35443;BME280;21561;55.654;37.592;2023-03-12T14:26:19;96488.56;;;-3.09;100.00